createdAt,value
2022-08-22T00:00:23.037Z,17.76
2022-08-22T00:01:22.039Z,17.78
2022-08-22T00:02:22.062Z,17.78
2022-08-22T00:02:43.620Z,20.37
2022-08-22T00:02:47.465Z,22.59
2022-08-22T00:02:55.613Z,18.05
2022-08-22T00:02:59.527Z,20.93
2022-08-22T00:03:03.862Z,22.49
2022-08-22T00:03:04.820Z,20.42
2022-08-22T00:03:07.260Z,18.41
2022-08-22T00:03:10.965Z,17.99
2022-08-22T00:04:22.014Z,17.75
2022-08-22T00:05:22.002Z,17.73
2022-08-22T00:06:21.981Z,17.72
2022-08-22T00:07:21.973Z,17.71
2022-08-22T00:08:21.991Z,17.72
2022-08-22T00:09:21.941Z,17.71
2022-08-22T00:10:25.496Z,17.68
2022-08-22T00:11:21.922Z,17.66
2022-08-22T00:12:21.922Z,17.65
2022-08-22T00:13:21.933Z,17.65
2022-08-22T00:14:21.902Z,17.65
2022-08-22T00:15:42.597Z,17.65
2022-08-22T00:16:22.874Z,17.63
2022-08-22T00:17:21.904Z,17.62
2022-08-22T00:18:21.862Z,17.62
2022-08-22T00:19:21.846Z,17.65
2022-08-22T00:20:21.834Z,17.66
2022-08-22T00:21:22.822Z,17.65
2022-08-22T00:22:21.844Z,17.65
2022-08-22T00:23:21.806Z,17.65
2022-08-22T00:24:21.797Z,17.66
2022-08-22T00:25:25.768Z,17.63
2022-08-22T00:26:21.777Z,17.57
2022-08-22T00:27:21.788Z,17.54
2022-08-22T00:28:21.758Z,17.54
2022-08-22T00:29:21.739Z,17.52
2022-08-22T00:30:21.736Z,17.47
2022-08-22T00:31:21.719Z,17.45
2022-08-22T00:32:21.750Z,17.41
2022-08-22T00:33:21.699Z,17.38
2022-08-22T00:34:21.710Z,17.35
2022-08-22T00:35:21.681Z,17.32
2022-08-22T00:36:21.671Z,17.31
2022-08-22T00:37:21.691Z,17.30
2022-08-22T00:38:21.705Z,17.31
2022-08-22T00:39:21.644Z,17.31
2022-08-22T00:40:21.714Z,17.31
2022-08-22T00:41:21.620Z,17.32
2022-08-22T00:42:31.827Z,17.31
2022-08-22T00:43:22.603Z,17.28
2022-08-22T00:44:21.594Z,17.24
2022-08-22T00:45:21.574Z,17.22
2022-08-22T00:46:21.574Z,17.20
2022-08-22T00:47:21.565Z,17.19
2022-08-22T00:48:21.575Z,17.17
2022-08-22T00:49:21.545Z,17.17
2022-08-22T00:50:21.526Z,17.19
2022-08-22T00:51:21.518Z,17.20
2022-08-22T00:52:21.516Z,17.20
2022-08-22T00:53:21.528Z,17.20
2022-08-22T00:54:21.498Z,17.19
2022-08-22T00:55:21.487Z,17.16
2022-08-22T00:56:21.478Z,17.12
2022-08-22T00:57:21.449Z,17.12
2022-08-22T00:58:21.489Z,17.10
2022-08-22T00:59:23.811Z,17.06
2022-08-22T01:00:21.429Z,17.06
2022-08-22T01:01:21.447Z,17.06
2022-08-22T01:02:21.407Z,17.06
2022-08-22T01:03:21.421Z,17.06
2022-08-22T01:04:21.398Z,17.04
2022-08-22T01:05:21.371Z,17.01
2022-08-22T01:06:21.372Z,17.01
2022-08-22T01:07:21.353Z,16.99
2022-08-22T01:08:21.371Z,16.94
2022-08-22T01:09:21.333Z,16.90
2022-08-22T01:10:21.325Z,16.84
2022-08-22T01:11:21.314Z,16.84
2022-08-22T01:12:21.305Z,16.80
2022-08-22T01:13:21.314Z,16.79
2022-08-22T01:14:21.292Z,16.77
2022-08-22T01:15:22.265Z,16.74
2022-08-22T01:16:21.265Z,16.76
2022-08-22T01:17:21.246Z,16.76
2022-08-22T01:18:21.267Z,16.77
2022-08-22T01:19:21.226Z,16.76
2022-08-22T01:20:21.226Z,16.76
2022-08-22T01:21:24.243Z,16.72
2022-08-22T01:22:21.209Z,16.64
2022-08-22T01:23:21.208Z,16.58
2022-08-22T01:24:21.178Z,16.55
2022-08-22T01:25:25.812Z,16.49
2022-08-22T01:26:22.159Z,16.46
2022-08-22T01:27:21.149Z,16.47
2022-08-22T01:28:21.162Z,16.47
2022-08-22T01:29:27.699Z,16.51
2022-08-22T01:30:23.378Z,16.52
2022-08-22T01:31:21.106Z,16.55
2022-08-22T01:32:21.099Z,16.55
2022-08-22T01:33:21.110Z,16.57
2022-08-22T01:34:21.082Z,16.58
2022-08-22T01:35:21.093Z,16.61
2022-08-22T01:36:21.060Z,16.61
2022-08-22T01:37:21.054Z,16.64
2022-08-22T01:38:21.065Z,16.64
2022-08-22T01:39:21.027Z,16.62
2022-08-22T01:40:21.058Z,16.62
2022-08-22T01:41:21.004Z,16.61
2022-08-22T01:42:20.994Z,16.55
2022-08-22T01:43:21.004Z,16.51
2022-08-22T01:44:21.987Z,16.51
2022-08-22T01:45:20.956Z,16.51
2022-08-22T01:46:21.587Z,16.51
2022-08-22T01:47:20.937Z,16.49
2022-08-22T01:48:20.957Z,16.51
2022-08-22T01:49:20.929Z,16.49
2022-08-22T01:50:20.916Z,16.51
2022-08-22T01:51:20.898Z,16.51
2022-08-22T01:52:20.896Z,16.47
2022-08-22T01:53:20.919Z,16.47
2022-08-22T01:54:20.876Z,16.47
2022-08-22T01:55:20.859Z,16.51
2022-08-22T01:56:20.856Z,16.51
2022-08-22T01:57:20.839Z,16.52
2022-08-22T01:58:20.857Z,16.55
2022-08-22T01:59:20.819Z,16.58
2022-08-22T02:00:35.079Z,16.57
2022-08-22T02:01:21.856Z,16.55
2022-08-22T02:02:20.801Z,16.52
2022-08-22T02:03:20.812Z,16.51
2022-08-22T02:04:20.771Z,16.49
2022-08-22T02:05:20.754Z,16.49
2022-08-22T02:06:20.752Z,16.51
2022-08-22T02:07:20.734Z,16.49
2022-08-22T02:08:21.752Z,16.49
2022-08-22T02:09:20.724Z,16.49
2022-08-22T02:10:20.705Z,16.49
2022-08-22T02:11:20.694Z,16.49
2022-08-22T02:12:21.811Z,16.49
2022-08-22T02:13:20.697Z,16.49
2022-08-22T02:14:20.665Z,16.49
2022-08-22T02:15:20.660Z,16.46
2022-08-22T02:16:20.665Z,16.46
2022-08-22T02:17:20.636Z,16.46
2022-08-22T02:18:20.646Z,16.49
2022-08-22T02:19:20.608Z,16.47
2022-08-22T02:20:20.664Z,16.46
2022-08-22T02:21:20.589Z,16.42
2022-08-22T02:22:20.578Z,16.37
2022-08-22T02:23:20.590Z,16.36
2022-08-22T02:24:20.562Z,16.34
2022-08-22T02:25:20.549Z,16.29
2022-08-22T02:26:20.540Z,16.29
2022-08-22T02:27:20.530Z,16.28
2022-08-22T02:28:20.550Z,16.28
2022-08-22T02:29:20.510Z,16.26
2022-08-22T02:30:20.502Z,16.25
2022-08-22T02:31:20.490Z,16.25
2022-08-22T02:32:20.481Z,16.24
2022-08-22T02:33:20.493Z,16.24
2022-08-22T02:34:20.462Z,16.24
2022-08-22T02:35:20.448Z,16.25
2022-08-22T02:36:20.434Z,16.25
2022-08-22T02:37:20.441Z,16.24
2022-08-22T02:38:20.442Z,16.24
2022-08-22T02:39:20.404Z,16.22
2022-08-22T02:40:20.451Z,16.17
2022-08-22T02:41:20.385Z,16.14
2022-08-22T02:42:20.385Z,16.13
2022-08-22T02:43:20.385Z,16.10
2022-08-22T02:44:20.357Z,16.08
2022-08-22T02:45:20.337Z,16.05
2022-08-22T02:46:20.330Z,16.03
2022-08-22T02:47:20.318Z,16.03
2022-08-22T02:48:20.365Z,16.00
2022-08-22T02:49:20.298Z,16.02
2022-08-22T02:50:20.298Z,16.00
2022-08-22T02:51:20.280Z,16.00
2022-08-22T02:52:20.270Z,16.00
2022-08-22T02:53:20.258Z,16.02
2022-08-22T02:54:20.281Z,16.05
2022-08-22T02:55:20.240Z,16.03
2022-08-22T02:56:20.230Z,16.02
2022-08-22T02:57:20.222Z,16.03
2022-08-22T02:58:20.211Z,15.99
2022-08-22T02:59:20.220Z,15.96
2022-08-22T03:00:31.869Z,15.91
2022-08-22T03:01:21.258Z,15.88
2022-08-22T03:02:20.172Z,15.87
2022-08-22T03:03:20.153Z,15.88
2022-08-22T03:04:20.173Z,15.87
2022-08-22T03:05:20.133Z,15.84
2022-08-22T03:06:20.123Z,15.84
2022-08-22T03:07:20.106Z,15.83
2022-08-22T03:08:20.110Z,15.81
2022-08-22T03:09:20.112Z,15.80
2022-08-22T03:10:20.083Z,15.81
2022-08-22T03:11:20.066Z,15.81
2022-08-22T03:12:20.064Z,15.80
2022-08-22T03:13:20.056Z,15.81
2022-08-22T03:14:20.066Z,15.80
2022-08-22T03:15:20.026Z,15.78
2022-08-22T03:16:20.019Z,15.73
2022-08-22T03:17:20.006Z,15.72
2022-08-22T03:18:20.008Z,15.70
2022-08-22T03:19:20.009Z,15.70
2022-08-22T03:20:19.977Z,15.70
2022-08-22T03:21:19.959Z,15.70
2022-08-22T03:22:19.961Z,15.70
2022-08-22T03:23:19.940Z,15.72
2022-08-22T03:24:19.959Z,15.70
2022-08-22T03:25:19.920Z,15.73
2022-08-22T03:26:19.912Z,15.76
2022-08-22T03:27:32.859Z,15.76
2022-08-22T03:28:20.892Z,15.77
2022-08-22T03:29:19.893Z,15.77
2022-08-22T03:30:19.872Z,15.80
2022-08-22T03:31:19.852Z,15.80
2022-08-22T03:32:19.850Z,15.81
2022-08-22T03:33:19.834Z,15.78
2022-08-22T03:34:19.863Z,15.80
2022-08-22T03:35:19.813Z,15.77
2022-08-22T03:36:19.814Z,15.76
2022-08-22T03:37:19.792Z,15.73
2022-08-22T03:38:19.792Z,15.72
2022-08-22T03:39:19.796Z,15.70
2022-08-22T03:40:19.823Z,15.68
2022-08-22T03:41:19.753Z,15.65
2022-08-22T03:42:19.749Z,15.62
2022-08-22T03:43:19.748Z,15.59
2022-08-22T03:44:19.754Z,15.58
2022-08-22T03:45:19.708Z,15.56
2022-08-22T03:46:19.707Z,15.54
2022-08-22T03:47:19.690Z,15.52
2022-08-22T03:48:19.688Z,15.50
2022-08-22T03:49:19.698Z,15.45
2022-08-22T03:50:19.661Z,15.45
2022-08-22T03:51:19.652Z,15.47
2022-08-22T03:52:19.650Z,15.45
2022-08-22T03:53:19.630Z,15.44
2022-08-22T03:54:19.651Z,15.41
2022-08-22T03:55:19.618Z,15.40
2022-08-22T03:56:19.603Z,15.38
2022-08-22T03:57:19.552Z,15.35
2022-08-22T03:58:28.240Z,15.38
2022-08-22T03:59:20.544Z,15.40
2022-08-22T04:00:19.577Z,15.41
2022-08-22T04:01:19.669Z,15.43
2022-08-22T04:02:42.116Z,15.43
2022-08-22T04:03:20.474Z,15.41
2022-08-22T04:04:19.494Z,15.44
2022-08-22T04:05:20.483Z,15.44
2022-08-22T04:06:19.462Z,15.45
2022-08-22T04:07:31.587Z,15.44
2022-08-22T04:08:25.563Z,15.43
2022-08-22T04:09:20.436Z,15.38
2022-08-22T04:10:19.406Z,15.33
2022-08-22T04:11:19.398Z,15.33
2022-08-22T04:12:19.387Z,15.33
2022-08-22T04:13:19.406Z,15.33
2022-08-22T04:14:20.368Z,15.35
2022-08-22T04:15:19.357Z,15.40
2022-08-22T04:16:19.357Z,15.41
2022-08-22T04:17:19.337Z,15.41
2022-08-22T04:18:19.349Z,15.43
2022-08-22T04:19:19.318Z,15.43
2022-08-22T04:20:19.319Z,15.45
2022-08-22T04:21:19.299Z,15.44
2022-08-22T04:22:19.288Z,15.47
2022-08-22T04:23:19.311Z,15.44
2022-08-22T04:24:19.272Z,15.44
2022-08-22T04:25:19.261Z,15.43
2022-08-22T04:26:19.242Z,15.44
2022-08-22T04:27:19.239Z,15.43
2022-08-22T04:28:19.261Z,15.43
2022-08-22T04:29:19.223Z,15.44
2022-08-22T04:30:19.210Z,15.43
2022-08-22T04:31:19.205Z,15.43
2022-08-22T04:32:19.191Z,15.41
2022-08-22T04:33:19.203Z,15.43
2022-08-22T04:34:19.166Z,15.41
2022-08-22T04:35:19.165Z,15.41
2022-08-22T04:36:19.158Z,15.41
2022-08-22T04:37:19.156Z,15.41
2022-08-22T04:38:19.166Z,15.40
2022-08-22T04:39:19.125Z,15.36
2022-08-22T04:40:19.184Z,15.36
2022-08-22T04:41:19.106Z,15.36
2022-08-22T04:42:34.323Z,15.40
2022-08-22T04:43:20.107Z,15.38
2022-08-22T04:44:19.067Z,15.36
2022-08-22T04:45:19.059Z,15.35
2022-08-22T04:46:19.047Z,15.35
2022-08-22T04:47:19.043Z,15.35
2022-08-22T04:48:19.049Z,15.33
2022-08-22T04:49:19.019Z,15.33
2022-08-22T04:50:19.003Z,15.35
2022-08-22T04:51:19.008Z,15.32
2022-08-22T04:52:18.988Z,15.33
2022-08-22T04:53:19.008Z,15.35
2022-08-22T04:54:18.962Z,15.32
2022-08-22T04:55:18.962Z,15.33
2022-08-22T04:56:18.951Z,15.33
2022-08-22T04:57:18.953Z,15.33
2022-08-22T04:58:18.945Z,15.33
2022-08-22T04:59:18.912Z,15.35
2022-08-22T05:00:18.903Z,15.38
2022-08-22T05:01:18.975Z,15.40
2022-08-22T05:02:18.884Z,15.40
2022-08-22T05:03:18.903Z,15.38
2022-08-22T05:04:18.864Z,15.36
2022-08-22T05:05:18.857Z,15.35
2022-08-22T05:06:18.846Z,15.33
2022-08-22T05:07:18.836Z,15.35
2022-08-22T05:08:18.849Z,15.33
2022-08-22T05:09:18.817Z,15.33
2022-08-22T05:10:18.816Z,15.32
2022-08-22T05:11:18.799Z,15.30
2022-08-22T05:12:18.787Z,15.29
2022-08-22T05:13:18.799Z,15.25
2022-08-22T05:14:18.762Z,15.27
2022-08-22T05:15:22.917Z,15.27
2022-08-22T05:16:18.756Z,15.29
2022-08-22T05:17:18.738Z,15.35
2022-08-22T05:18:18.758Z,15.33
2022-08-22T05:19:24.937Z,15.36
2022-08-22T05:20:19.701Z,15.38
2022-08-22T05:21:18.699Z,15.41
2022-08-22T05:22:18.693Z,15.43
2022-08-22T05:23:18.712Z,15.44
2022-08-22T05:24:18.667Z,15.45
2022-08-22T05:25:18.659Z,15.51
2022-08-22T05:26:18.643Z,15.54
2022-08-22T05:27:18.634Z,15.59
2022-08-22T05:28:18.642Z,15.62
2022-08-22T05:29:18.622Z,15.66
2022-08-22T05:30:18.603Z,15.70
2022-08-22T05:31:18.607Z,15.76
2022-08-22T05:32:18.586Z,15.78
2022-08-22T05:33:18.615Z,15.83
2022-08-22T05:34:18.563Z,15.85
2022-08-22T05:35:18.565Z,15.88
2022-08-22T05:36:18.546Z,15.88
2022-08-22T05:37:18.536Z,15.93
2022-08-22T05:38:18.545Z,15.93
2022-08-22T05:39:18.518Z,15.99
2022-08-22T05:40:18.540Z,15.99
2022-08-22T05:41:18.497Z,16.02
2022-08-22T05:42:18.489Z,16.05
2022-08-22T05:43:18.500Z,16.08
2022-08-22T05:44:18.459Z,16.10
2022-08-22T05:45:18.461Z,16.13
2022-08-22T05:46:18.442Z,16.16
2022-08-22T05:47:18.439Z,16.17
2022-08-22T05:48:18.461Z,16.22
2022-08-22T05:49:18.421Z,16.26
2022-08-22T05:50:18.406Z,16.33
2022-08-22T05:51:18.392Z,16.39
2022-08-22T05:52:18.391Z,16.42
2022-08-22T05:53:18.400Z,16.42
2022-08-22T05:54:18.352Z,16.43
2022-08-22T05:55:18.352Z,16.43
2022-08-22T05:56:18.334Z,16.44
2022-08-22T05:57:18.323Z,16.46
2022-08-22T05:58:18.338Z,16.47
2022-08-22T05:59:18.313Z,16.51
2022-08-22T06:00:20.350Z,16.54
2022-08-22T06:01:18.313Z,16.55
2022-08-22T06:02:18.283Z,16.58
2022-08-22T06:03:18.284Z,16.59
2022-08-22T06:04:18.254Z,16.64
2022-08-22T06:05:18.245Z,16.67
2022-08-22T06:06:18.226Z,16.72
2022-08-22T06:07:18.217Z,16.77
2022-08-22T06:08:18.245Z,16.80
2022-08-22T06:09:18.207Z,16.84
2022-08-22T06:10:18.187Z,16.91
2022-08-22T06:11:18.178Z,16.94
2022-08-22T06:12:22.177Z,16.98
2022-08-22T06:13:24.362Z,17.02
2022-08-22T06:14:19.141Z,17.07
2022-08-22T06:15:20.988Z,17.10
2022-08-22T06:16:18.129Z,17.16
2022-08-22T06:17:18.121Z,17.19
2022-08-22T06:18:18.130Z,17.24
2022-08-22T06:19:19.343Z,17.28
2022-08-22T06:20:18.082Z,17.32
2022-08-22T06:21:18.083Z,17.35
2022-08-22T06:22:18.751Z,17.35
2022-08-22T06:23:18.111Z,17.34
2022-08-22T06:24:18.043Z,17.35
2022-08-22T06:25:18.033Z,17.37
2022-08-22T06:26:20.450Z,17.38
2022-08-22T06:27:18.013Z,17.41
2022-08-22T06:28:18.034Z,17.46
2022-08-22T06:29:17.995Z,17.49
2022-08-22T06:30:17.976Z,17.54
2022-08-22T06:31:17.975Z,17.59
2022-08-22T06:32:17.959Z,17.66
2022-08-22T06:33:18.981Z,17.69
2022-08-22T06:34:17.966Z,17.75
2022-08-22T06:35:17.949Z,17.83
2022-08-22T06:36:18.395Z,17.87
2022-08-22T06:37:17.935Z,17.93
2022-08-22T06:38:17.940Z,18.01
2022-08-22T06:39:17.898Z,18.08
2022-08-22T06:40:17.914Z,18.09
2022-08-22T06:41:17.878Z,18.12
2022-08-22T06:42:17.860Z,18.15
2022-08-22T06:43:17.892Z,18.18
2022-08-22T06:44:17.840Z,18.23
2022-08-22T06:45:17.831Z,18.26
2022-08-22T06:46:17.821Z,18.28
2022-08-22T06:47:17.820Z,18.30
2022-08-22T06:48:17.822Z,18.34
2022-08-22T06:49:17.792Z,18.38
2022-08-22T06:50:17.782Z,18.41
2022-08-22T06:51:17.772Z,18.45
2022-08-22T06:52:17.762Z,18.48
2022-08-22T06:53:17.773Z,18.54
2022-08-22T06:54:17.733Z,18.58
2022-08-22T06:55:17.733Z,18.60
2022-08-22T06:56:17.715Z,18.63
2022-08-22T06:57:17.706Z,18.63
2022-08-22T06:58:17.724Z,18.68
2022-08-22T06:59:17.696Z,18.70
2022-08-22T07:00:17.694Z,18.74
2022-08-22T07:01:17.725Z,18.78
2022-08-22T07:02:17.657Z,18.83
2022-08-22T07:03:17.649Z,18.88
2022-08-22T07:04:17.660Z,18.94
2022-08-22T07:05:17.628Z,18.94
2022-08-22T07:06:17.620Z,18.98
2022-08-22T07:07:17.608Z,19.04
2022-08-22T07:08:17.599Z,19.07
2022-08-22T07:09:17.610Z,19.13
2022-08-22T07:10:17.579Z,19.16
2022-08-22T07:11:17.570Z,19.20
2022-08-22T07:12:17.552Z,19.24
2022-08-22T07:13:17.551Z,19.27
2022-08-22T07:14:17.561Z,19.34
2022-08-22T07:15:17.522Z,19.37
2022-08-22T07:16:17.512Z,19.44
2022-08-22T07:17:17.512Z,19.49
2022-08-22T07:18:17.493Z,19.54
2022-08-22T07:19:17.517Z,19.59
2022-08-22T07:20:17.474Z,19.63
2022-08-22T07:21:17.465Z,19.70
2022-08-22T07:22:18.445Z,19.74
2022-08-22T07:23:17.446Z,19.78
2022-08-22T07:24:17.455Z,19.82
2022-08-22T07:25:17.427Z,19.89
2022-08-22T07:26:17.408Z,19.94
2022-08-22T07:27:17.404Z,19.99
2022-08-22T07:28:17.387Z,20.05
2022-08-22T07:29:17.418Z,20.09
2022-08-22T07:30:17.369Z,20.17
2022-08-22T07:31:18.358Z,20.25
2022-08-22T07:32:17.359Z,20.30
2022-08-22T07:33:26.634Z,20.34
2022-08-22T07:34:18.349Z,20.42
2022-08-22T07:35:17.330Z,20.48
2022-08-22T07:36:17.314Z,20.53
2022-08-22T07:37:17.300Z,20.60
2022-08-22T07:38:17.283Z,20.64
2022-08-22T07:39:17.302Z,20.70
2022-08-22T07:40:17.318Z,20.73
2022-08-22T07:41:17.273Z,20.77
2022-08-22T07:42:17.246Z,20.83
2022-08-22T07:43:17.240Z,20.86
2022-08-22T07:44:17.254Z,20.83
2022-08-22T07:45:18.213Z,20.85
2022-08-22T07:46:17.205Z,20.90
2022-08-22T07:47:18.029Z,20.93
2022-08-22T07:48:25.495Z,20.98
2022-08-22T07:49:18.206Z,21.00
2022-08-22T07:50:17.163Z,21.01
2022-08-22T07:51:17.168Z,21.03
2022-08-22T07:52:17.143Z,21.04
2022-08-22T07:53:17.138Z,21.04
2022-08-22T07:54:17.156Z,21.03
2022-08-22T07:55:17.118Z,21.04
2022-08-22T07:56:17.099Z,21.10
2022-08-22T07:57:17.098Z,21.18
2022-08-22T07:58:17.081Z,21.26
2022-08-22T07:59:17.108Z,21.34
2022-08-22T08:00:17.063Z,21.44
2022-08-22T08:01:17.083Z,21.56
2022-08-22T08:02:17.042Z,21.69
2022-08-22T08:03:17.035Z,21.80
2022-08-22T08:04:17.043Z,21.91
2022-08-22T08:05:17.014Z,22.03
2022-08-22T08:06:17.003Z,22.16
2022-08-22T08:07:16.993Z,22.30
2022-08-22T08:08:16.984Z,22.41
2022-08-22T08:09:17.004Z,22.56
2022-08-22T08:10:16.955Z,22.68
2022-08-22T08:11:16.954Z,22.81
2022-08-22T08:12:16.944Z,22.98
2022-08-22T08:13:16.936Z,23.10
2022-08-22T08:14:16.949Z,23.17
2022-08-22T08:15:16.916Z,23.26
2022-08-22T08:16:16.908Z,23.33
2022-08-22T08:17:16.899Z,23.41
2022-08-22T08:18:16.887Z,23.45
2022-08-22T08:19:16.897Z,23.51
2022-08-22T08:20:16.858Z,23.63
2022-08-22T08:21:16.857Z,23.76
2022-08-22T08:22:16.840Z,23.92
2022-08-22T08:23:16.837Z,24.10
2022-08-22T08:24:17.840Z,24.25
2022-08-22T08:25:16.812Z,24.40
2022-08-22T08:26:16.802Z,24.58
2022-08-22T08:27:16.797Z,24.74
2022-08-22T08:28:16.786Z,24.86
2022-08-22T08:29:16.803Z,25.00
2022-08-22T08:30:16.764Z,25.06
2022-08-22T08:31:16.753Z,25.12
2022-08-22T08:32:16.744Z,25.15
2022-08-22T08:33:24.756Z,25.22
2022-08-22T08:34:17.736Z,25.30
2022-08-22T08:35:16.716Z,25.40
2022-08-22T08:36:16.708Z,25.41
2022-08-22T08:37:16.688Z,25.52
2022-08-22T08:38:16.697Z,25.64
2022-08-22T08:39:16.697Z,25.77
2022-08-22T08:40:16.713Z,25.96
2022-08-22T08:41:19.714Z,26.10
2022-08-22T08:42:17.640Z,26.24
2022-08-22T08:43:16.629Z,26.34
2022-08-22T08:44:16.660Z,26.45
2022-08-22T08:45:16.636Z,26.60
2022-08-22T08:46:16.609Z,26.68
2022-08-22T08:47:16.600Z,26.82
2022-08-22T08:48:16.582Z,26.93
2022-08-22T08:49:16.592Z,27.00
2022-08-22T08:50:16.564Z,27.05
2022-08-22T08:51:16.553Z,27.15
2022-08-22T08:52:16.545Z,27.22
2022-08-22T08:53:16.535Z,27.35
2022-08-22T08:54:16.545Z,27.47
2022-08-22T08:55:21.957Z,27.60
2022-08-22T08:56:19.759Z,27.73
2022-08-22T08:57:16.497Z,27.82
2022-08-22T08:58:17.743Z,27.91
2022-08-22T08:59:16.496Z,27.98
2022-08-22T09:00:16.468Z,27.98
2022-08-22T09:01:16.505Z,27.91
2022-08-22T09:02:20.480Z,27.88
2022-08-22T09:03:24.051Z,27.95
2022-08-22T09:04:17.459Z,28.03
2022-08-22T09:05:16.424Z,28.17
2022-08-22T09:06:16.410Z,28.32
2022-08-22T09:07:16.398Z,28.47
2022-08-22T09:08:16.396Z,28.66
2022-08-22T09:09:16.403Z,28.81
2022-08-22T09:10:16.373Z,28.93
2022-08-22T09:11:16.387Z,29.03
2022-08-22T09:12:17.353Z,29.15
2022-08-22T09:13:16.354Z,29.28
2022-08-22T09:14:16.362Z,29.41
2022-08-22T09:15:16.324Z,29.49
2022-08-22T09:16:16.320Z,29.49
2022-08-22T09:17:16.305Z,29.50
2022-08-22T09:18:18.182Z,29.49
2022-08-22T09:19:16.306Z,29.40
2022-08-22T09:20:19.445Z,29.27
2022-08-22T09:21:16.267Z,29.36
2022-08-22T09:22:17.266Z,29.43
2022-08-22T09:23:16.249Z,29.50
2022-08-22T09:24:16.334Z,29.61
2022-08-22T09:25:16.229Z,29.73
2022-08-22T09:26:16.224Z,29.78
2022-08-22T09:27:16.210Z,29.83
2022-08-22T09:28:16.222Z,29.89
2022-08-22T09:29:16.212Z,29.93
2022-08-22T09:30:16.190Z,29.95
2022-08-22T09:31:16.842Z,29.99
2022-08-22T09:32:17.163Z,30.05
2022-08-22T09:33:16.152Z,30.08
2022-08-22T09:34:16.174Z,30.20
2022-08-22T09:35:17.133Z,30.39
2022-08-22T09:36:16.133Z,30.46
2022-08-22T09:37:16.117Z,30.40
2022-08-22T09:38:16.125Z,30.52
2022-08-22T09:39:16.124Z,30.64
2022-08-22T09:40:18.883Z,30.77
2022-08-22T09:41:16.101Z,30.92
2022-08-22T09:42:16.079Z,30.97
2022-08-22T09:43:19.880Z,31.05
2022-08-22T09:44:17.088Z,31.17
2022-08-22T09:45:16.046Z,31.33
2022-08-22T09:46:16.042Z,31.49
2022-08-22T09:47:16.027Z,31.56
2022-08-22T09:48:17.053Z,31.63
2022-08-22T09:49:16.463Z,31.59
2022-08-22T09:50:17.031Z,31.42
2022-08-22T09:51:31.192Z,31.27
2022-08-22T09:52:33.188Z,31.30
2022-08-22T09:53:17.007Z,31.34
2022-08-22T09:54:16.817Z,31.34
2022-08-22T09:55:16.215Z,31.44
2022-08-22T09:56:16.007Z,31.56
2022-08-22T09:57:15.942Z,31.56
2022-08-22T09:58:15.965Z,31.45
2022-08-22T09:59:15.926Z,31.51
2022-08-22T10:00:15.915Z,31.64
2022-08-22T10:01:15.957Z,31.70
2022-08-22T10:02:15.944Z,31.84
2022-08-22T10:03:15.909Z,31.98
2022-08-22T10:04:19.478Z,32.19
2022-08-22T10:05:34.900Z,32.35
2022-08-22T10:06:16.858Z,32.50
2022-08-22T10:07:15.840Z,32.57
2022-08-22T10:08:19.723Z,32.72
2022-08-22T10:09:15.849Z,32.68
2022-08-22T10:10:15.822Z,32.70
2022-08-22T10:11:16.812Z,32.69
2022-08-22T10:12:15.803Z,32.63
2022-08-22T10:13:15.801Z,32.64
2022-08-22T10:14:15.814Z,32.65
2022-08-22T10:15:16.780Z,32.80
2022-08-22T10:16:15.770Z,32.92
2022-08-22T10:17:15.774Z,32.98
2022-08-22T10:18:16.754Z,33.01
2022-08-22T10:19:15.764Z,32.79
2022-08-22T10:20:15.761Z,32.80
2022-08-22T10:21:15.718Z,32.88
2022-08-22T10:22:15.716Z,32.85
2022-08-22T10:23:15.709Z,32.95
2022-08-22T10:24:25.513Z,33.01
2022-08-22T10:25:18.566Z,32.95
2022-08-22T10:26:22.981Z,32.77
2022-08-22T10:27:16.669Z,32.80
2022-08-22T10:28:15.668Z,32.94
2022-08-22T10:29:15.669Z,32.92
2022-08-22T10:30:16.354Z,33.01
2022-08-22T10:31:15.640Z,33.17
2022-08-22T10:32:15.642Z,33.30
2022-08-22T10:33:15.643Z,33.47
2022-08-22T10:34:15.614Z,33.60
2022-08-22T10:35:15.610Z,33.67
2022-08-22T10:36:15.596Z,33.71
2022-08-22T10:37:15.591Z,33.88
2022-08-22T10:38:15.604Z,34.00
2022-08-22T10:39:15.565Z,34.15
2022-08-22T10:40:15.597Z,34.08
2022-08-22T10:41:15.570Z,34.11
2022-08-22T10:42:15.546Z,34.18
2022-08-22T10:43:15.557Z,34.26
2022-08-22T10:44:15.538Z,34.42
2022-08-22T10:45:15.517Z,34.63
2022-08-22T10:46:16.515Z,34.75
2022-08-22T10:47:15.499Z,34.85
2022-08-22T10:48:15.519Z,34.86
2022-08-22T10:49:18.036Z,35.01
2022-08-22T10:50:15.480Z,35.04
2022-08-22T10:51:15.461Z,35.21
2022-08-22T10:52:16.319Z,35.39
2022-08-22T10:53:15.489Z,35.47
2022-08-22T10:54:20.080Z,35.53
2022-08-22T10:55:15.431Z,35.56
2022-08-22T10:56:15.432Z,35.56
2022-08-22T10:57:20.776Z,35.60
2022-08-22T10:58:15.434Z,35.63
2022-08-22T10:59:15.395Z,35.57
2022-08-22T11:00:15.421Z,35.66
2022-08-22T11:01:38.252Z,35.72
2022-08-22T11:02:16.384Z,35.90
2022-08-22T11:03:19.973Z,36.07
2022-08-22T11:04:16.356Z,36.22
2022-08-22T11:05:15.347Z,36.22
2022-08-22T11:06:15.351Z,36.13
2022-08-22T11:07:15.327Z,35.94
2022-08-22T11:08:15.347Z,35.87
2022-08-22T11:09:15.321Z,35.90
2022-08-22T11:10:15.329Z,35.92
2022-08-22T11:11:15.291Z,35.65
2022-08-22T11:12:15.308Z,35.69
2022-08-22T11:13:15.308Z,35.81
2022-08-22T11:14:15.271Z,35.79
2022-08-22T11:15:15.263Z,35.88
2022-08-22T11:16:16.258Z,35.90
2022-08-22T11:17:30.304Z,35.85
2022-08-22T11:18:16.263Z,35.94
2022-08-22T11:19:15.937Z,35.92
2022-08-22T11:20:15.224Z,35.92
2022-08-22T11:21:15.214Z,36.03
2022-08-22T11:22:15.222Z,36.03
2022-08-22T11:23:15.226Z,36.17
2022-08-22T11:24:17.357Z,36.33
2022-08-22T11:25:28.679Z,36.44
2022-08-22T11:26:29.209Z,36.69
2022-08-22T11:27:17.750Z,36.89
2022-08-22T11:28:15.309Z,37.05
2022-08-22T11:29:15.154Z,37.19
2022-08-22T11:30:18.559Z,37.32
2022-08-22T11:31:15.136Z,37.51
2022-08-22T11:32:15.161Z,37.62
2022-08-22T11:33:15.139Z,37.67
2022-08-22T11:34:15.107Z,37.74
2022-08-22T11:35:16.099Z,37.77
2022-08-22T11:36:15.090Z,37.83
2022-08-22T11:37:15.071Z,37.76
2022-08-22T11:38:15.100Z,37.72
2022-08-22T11:39:18.691Z,37.67
2022-08-22T11:40:15.100Z,37.51
2022-08-22T11:41:15.051Z,37.01
2022-08-22T11:42:15.044Z,36.52
2022-08-22T11:43:18.173Z,36.25
2022-08-22T11:44:15.025Z,36.30
2022-08-22T11:45:16.413Z,36.42
2022-08-22T11:46:15.007Z,36.54
2022-08-22T11:47:14.998Z,36.69
2022-08-22T11:48:15.016Z,36.97
2022-08-22T11:49:14.977Z,37.17
2022-08-22T11:50:14.980Z,37.42
2022-08-22T11:51:14.966Z,37.65
2022-08-22T11:52:14.968Z,37.85
2022-08-22T11:53:14.974Z,37.94
2022-08-22T11:54:14.945Z,38.04
2022-08-22T11:55:14.937Z,38.25
2022-08-22T11:56:14.927Z,38.45
2022-08-22T11:57:14.911Z,38.47
2022-08-22T11:58:14.941Z,38.51
2022-08-22T11:59:14.899Z,38.63
2022-08-22T12:00:14.948Z,38.78
2022-08-22T12:01:17.213Z,38.91
2022-08-22T12:02:14.958Z,39.04
2022-08-22T12:03:14.891Z,39.05
2022-08-22T12:04:14.865Z,39.01
2022-08-22T12:05:24.334Z,39.04
2022-08-22T12:06:16.155Z,39.12
2022-08-22T12:07:14.848Z,39.21
2022-08-22T12:08:14.854Z,39.23
2022-08-22T12:09:15.824Z,39.14
2022-08-22T12:10:14.970Z,38.88
2022-08-22T12:11:14.805Z,38.79
2022-08-22T12:12:14.810Z,38.85
2022-08-22T12:13:14.807Z,38.99
2022-08-22T12:14:14.786Z,39.04
2022-08-22T12:15:14.768Z,39.09
2022-08-22T12:16:14.818Z,39.20
2022-08-22T12:17:50.847Z,39.05
2022-08-22T12:18:21.226Z,39.09
2022-08-22T12:19:15.742Z,39.12
2022-08-22T12:20:16.090Z,38.97
2022-08-22T12:21:14.720Z,38.73
2022-08-22T12:22:14.721Z,38.85
2022-08-22T12:23:14.730Z,38.88
2022-08-22T12:24:19.140Z,39.01
2022-08-22T12:25:14.691Z,39.06
2022-08-22T12:26:14.682Z,39.17
2022-08-22T12:27:14.674Z,39.30
2022-08-22T12:28:15.846Z,39.36
2022-08-22T12:29:15.614Z,39.33
2022-08-22T12:30:14.654Z,39.30
2022-08-22T12:31:14.652Z,39.09
2022-08-22T12:32:14.635Z,38.84
2022-08-22T12:33:16.390Z,38.64
2022-08-22T12:34:15.616Z,38.22
2022-08-22T12:35:14.666Z,38.04
2022-08-22T12:36:18.404Z,37.99
2022-08-22T12:37:14.596Z,38.07
2022-08-22T12:38:26.695Z,38.22
2022-08-22T12:39:15.578Z,38.41
2022-08-22T12:40:14.723Z,38.63
2022-08-22T12:41:14.561Z,38.76
2022-08-22T12:42:15.558Z,38.89
2022-08-22T12:43:14.570Z,39.06
2022-08-22T12:44:17.011Z,39.11
2022-08-22T12:45:14.540Z,39.21